sensor_id;sensor_type;location;lat;lon;timestamp;P1;durP1;ratioP1;P2;durP2;ratioP2
60368;SDS011;46208;44.634;10.492;2022-12-08T00:02:30;1.80;;;1.67;;
60368;SDS011;46208;44.634;10.492;2022-12-08T00:05:34;2.90;;;2.65;;
60368;SDS011;46208;44.634;10.492;2022-12-08T00:08:56;2.25;;;1.65;;
60368;SDS011;46208;44.634;10.492;2022-12-08T00:12:18;2.78;;;2.20;;
60368;SDS011;46208;44.634;10.492;2022-12-08T00:15:22;1.50;;;1.40;;
60368;SDS011;46208;44.634;10.492;2022-12-08T00:18:26;8.32;;;2.08;;
60368;SDS011;46208;44.634;10.492;2022-12-08T00:21:30;2.15;;;1.77;;
60368;SDS011;46208;44.634;10.492;2022-12-08T00:24:34;4.53;;;1.40;;
60368;SDS011;46208;44.634;10.492;2022-12-08T00:27:42;6.60;;;2.63;;
60368;SDS011;46208;44.634;10.492;2022-12-08T00:30:45;1.67;;;1.58;;
60368;SDS011;46208;44.634;10.492;2022-12-08T00:33:49;1.58;;;1.50;;
60368;SDS011;46208;44.634;10.492;2022-12-08T00:36:53;2.67;;;2.47;;
60368;SDS011;46208;44.634;10.492;2022-12-08T00:39:57;5.15;;;2.33;;
60368;SDS011;46208;44.634;10.492;2022-12-08T00:43:01;3.17;;;2.70;;
60368;SDS011;46208;44.634;10.492;2022-12-08T00:46:04;2.90;;;1.88;;
60368;SDS011;46208;44.634;10.492;2022-12-08T00:49:08;2.88;;;2.67;;
60368;SDS011;46208;44.634;10.492;2022-12-08T00:52:12;0.90;;;0.90;;
60368;SDS011;46208;44.634;10.492;2022-12-08T00:55:16;1.88;;;1.77;;
60368;SDS011;46208;44.634;10.492;2022-12-08T00:58:19;1.88;;;1.77;;
60368;SDS011;46208;44.634;10.492;2022-12-08T01:01:23;3.72;;;1.85;;
60368;SDS011;46208;44.634;10.492;2022-12-08T01:04:27;1.58;;;1.48;;
60368;SDS011;46208;44.634;10.492;2022-12-08T01:07:31;0.88;;;0.88;;
60368;SDS011;46208;44.634;10.492;2022-12-08T01:10:35;2.65;;;1.90;;
60368;SDS011;46208;44.634;10.492;2022-12-08T01:13:39;3.08;;;2.33;;
60368;SDS011;46208;44.634;10.492;2022-12-08T01:16:44;2.33;;;2.22;;
60368;SDS011;46208;44.634;10.492;2022-12-08T01:19:48;2.08;;;1.85;;
60368;SDS011;46208;44.634;10.492;2022-12-08T01:22:51;1.65;;;1.60;;
60368;SDS011;46208;44.634;10.492;2022-12-08T01:25:59;4.32;;;3.92;;
60368;SDS011;46208;44.634;10.492;2022-12-08T01:32:07;1.88;;;1.77;;
60368;SDS011;46208;44.634;10.492;2022-12-08T01:35:12;3.40;;;2.72;;
60368;SDS011;46208;44.634;10.492;2022-12-08T01:38:16;3.78;;;2.10;;
60368;SDS011;46208;44.634;10.492;2022-12-08T01:41:20;4.57;;;2.55;;
60368;SDS011;46208;44.634;10.492;2022-12-08T01:47:32;3.13;;;2.22;;
60368;SDS011;46208;44.634;10.492;2022-12-08T01:50:38;2.30;;;2.10;;
60368;SDS011;46208;44.634;10.492;2022-12-08T01:53:43;8.52;;;3.55;;
60368;SDS011;46208;44.634;10.492;2022-12-08T02:00:00;2.10;;;1.80;;
60368;SDS011;46208;44.634;10.492;2022-12-08T02:03:13;1.63;;;1.52;;
60368;SDS011;46208;44.634;10.492;2022-12-08T02:06:20;3.17;;;2.10;;
60368;SDS011;46208;44.634;10.492;2022-12-08T02:09:23;2.80;;;2.58;;
60368;SDS011;46208;44.634;10.492;2022-12-08T02:12:27;6.13;;;3.90;;
60368;SDS011;46208;44.634;10.492;2022-12-08T02:15:37;2.58;;;2.38;;
60368;SDS011;46208;44.634;10.492;2022-12-08T02:18:55;2.53;;;1.80;;
60368;SDS011;46208;44.634;10.492;2022-12-08T02:35:54;2.30;;;1.90;;
60368;SDS011;46208;44.634;10.492;2022-12-08T02:42:38;2.08;;;1.98;;
60368;SDS011;46208;44.634;10.492;2022-12-08T02:45:51;3.33;;;3.13;;
60368;SDS011;46208;44.634;10.492;2022-12-08T02:48:58;6.70;;;3.05;;
60368;SDS011;46208;44.634;10.492;2022-12-08T03:09:14;4.45;;;2.05;;
60368;SDS011;46208;44.634;10.492;2022-12-08T03:12:42;3.00;;;2.25;;
60368;SDS011;46208;44.634;10.492;2022-12-08T03:15:52;6.70;;;2.63;;
60368;SDS011;46208;44.634;10.492;2022-12-08T03:19:02;3.38;;;3.03;;
60368;SDS011;46208;44.634;10.492;2022-12-08T03:22:10;3.45;;;3.22;;
60368;SDS011;46208;44.634;10.492;2022-12-08T03:25:14;2.63;;;2.42;;
60368;SDS011;46208;44.634;10.492;2022-12-08T03:28:19;1.77;;;1.67;;
60368;SDS011;46208;44.634;10.492;2022-12-08T03:31:24;2.65;;;2.45;;
60368;SDS011;46208;44.634;10.492;2022-12-08T03:34:29;4.53;;;3.15;;
60368;SDS011;46208;44.634;10.492;2022-12-08T03:37:37;7.05;;;4.47;;
60368;SDS011;46208;44.634;10.492;2022-12-08T03:40:42;1.33;;;1.23;;
60368;SDS011;46208;44.634;10.492;2022-12-08T03:46:54;3.13;;;2.43;;
60368;SDS011;46208;44.634;10.492;2022-12-08T03:49:58;2.53;;;2.42;;
60368;SDS011;46208;44.634;10.492;2022-12-08T03:53:02;3.25;;;2.03;;
60368;SDS011;46208;44.634;10.492;2022-12-08T03:59:29;5.22;;;1.85;;
60368;SDS011;46208;44.634;10.492;2022-12-08T04:02:33;3.67;;;2.33;;
60368;SDS011;46208;44.634;10.492;2022-12-08T04:05:36;4.95;;;2.53;;
60368;SDS011;46208;44.634;10.492;2022-12-08T04:08:40;3.20;;;2.88;;
60368;SDS011;46208;44.634;10.492;2022-12-08T04:11:44;3.45;;;2.72;;
60368;SDS011;46208;44.634;10.492;2022-12-08T04:14:48;5.28;;;2.85;;
60368;SDS011;46208;44.634;10.492;2022-12-08T04:17:52;3.08;;;2.50;;
60368;SDS011;46208;44.634;10.492;2022-12-08T04:20:56;2.17;;;2.03;;
60368;SDS011;46208;44.634;10.492;2022-12-08T04:23:59;7.65;;;1.95;;
60368;SDS011;46208;44.634;10.492;2022-12-08T04:27:03;8.77;;;2.47;;
60368;SDS011;46208;44.634;10.492;2022-12-08T04:30:07;4.07;;;3.00;;
60368;SDS011;46208;44.634;10.492;2022-12-08T04:33:11;3.72;;;3.08;;
60368;SDS011;46208;44.634;10.492;2022-12-08T04:36:15;2.28;;;1.20;;
60368;SDS011;46208;44.634;10.492;2022-12-08T04:39:19;2.35;;;2.20;;
60368;SDS011;46208;44.634;10.492;2022-12-08T04:42:23;2.15;;;2.00;;
60368;SDS011;46208;44.634;10.492;2022-12-08T04:45:27;1.63;;;1.48;;
60368;SDS011;46208;44.634;10.492;2022-12-08T04:48:30;3.15;;;2.95;;
60368;SDS011;46208;44.634;10.492;2022-12-08T04:51:34;2.92;;;2.72;;
60368;SDS011;46208;44.634;10.492;2022-12-08T04:54:38;1.73;;;1.63;;
60368;SDS011;46208;44.634;10.492;2022-12-08T04:57:42;3.75;;;3.45;;
60368;SDS011;46208;44.634;10.492;2022-12-08T05:00:46;1.55;;;1.45;;
60368;SDS011;46208;44.634;10.492;2022-12-08T05:03:50;1.83;;;1.70;;
60368;SDS011;46208;44.634;10.492;2022-12-08T05:06:54;2.35;;;1.50;;
60368;SDS011;46208;44.634;10.492;2022-12-08T05:09:58;2.88;;;1.63;;
60368;SDS011;46208;44.634;10.492;2022-12-08T05:13:02;2.95;;;2.58;;
60368;SDS011;46208;44.634;10.492;2022-12-08T05:16:08;1.77;;;1.67;;
60368;SDS011;46208;44.634;10.492;2022-12-08T05:19:13;4.85;;;3.15;;
60368;SDS011;46208;44.634;10.492;2022-12-08T05:22:18;1.20;;;1.10;;
60368;SDS011;46208;44.634;10.492;2022-12-08T05:25:22;2.15;;;2.00;;
60368;SDS011;46208;44.634;10.492;2022-12-08T05:28:25;2.88;;;2.42;;
60368;SDS011;46208;44.634;10.492;2022-12-08T05:31:29;2.78;;;2.10;;
60368;SDS011;46208;44.634;10.492;2022-12-08T05:34:33;4.55;;;1.83;;
60368;SDS011;46208;44.634;10.492;2022-12-08T05:37:37;2.58;;;2.38;;
60368;SDS011;46208;44.634;10.492;2022-12-08T05:40:41;3.80;;;2.03;;
60368;SDS011;46208;44.634;10.492;2022-12-08T05:43:46;2.53;;;1.83;;
60368;SDS011;46208;44.634;10.492;2022-12-08T05:46:50;2.58;;;2.05;;
60368;SDS011;46208;44.634;10.492;2022-12-08T05:49:54;2.30;;;1.88;;
60368;SDS011;46208;44.634;10.492;2022-12-08T05:52:57;1.75;;;1.65;;
60368;SDS011;46208;44.634;10.492;2022-12-08T05:56:01;3.15;;;1.45;;
60368;SDS011;46208;44.634;10.492;2022-12-08T05:59:05;2.35;;;2.13;;
60368;SDS011;46208;44.634;10.492;2022-12-08T06:02:09;2.70;;;2.50;;
60368;SDS011;46208;44.634;10.492;2022-12-08T06:05:13;3.40;;;3.08;;
60368;SDS011;46208;44.634;10.492;2022-12-08T06:08:17;3.47;;;2.58;;
60368;SDS011;46208;44.634;10.492;2022-12-08T06:11:25;3.13;;;2.35;;
60368;SDS011;46208;44.634;10.492;2022-12-08T06:17:33;2.00;;;1.90;;
60368;SDS011;46208;44.634;10.492;2022-12-08T06:20:37;3.83;;;2.83;;
60368;SDS011;46208;44.634;10.492;2022-12-08T06:23:41;2.05;;;1.95;;
60368;SDS011;46208;44.634;10.492;2022-12-08T06:26:45;4.65;;;3.03;;
60368;SDS011;46208;44.634;10.492;2022-12-08T06:29:49;5.68;;;2.20;;
60368;SDS011;46208;44.634;10.492;2022-12-08T06:32:53;2.35;;;1.95;;
60368;SDS011;46208;44.634;10.492;2022-12-08T06:35:57;1.85;;;1.67;;
60368;SDS011;46208;44.634;10.492;2022-12-08T06:39:00;5.78;;;3.80;;
60368;SDS011;46208;44.634;10.492;2022-12-08T06:42:04;3.70;;;3.22;;
60368;SDS011;46208;44.634;10.492;2022-12-08T06:45:26;11.15;;;3.20;;
60368;SDS011;46208;44.634;10.492;2022-12-08T06:48:30;5.22;;;3.10;;
60368;SDS011;46208;44.634;10.492;2022-12-08T06:51:34;2.92;;;2.40;;
60368;SDS011;46208;44.634;10.492;2022-12-08T06:54:38;2.75;;;1.98;;
60368;SDS011;46208;44.634;10.492;2022-12-08T06:57:41;6.95;;;4.43;;
60368;SDS011;46208;44.634;10.492;2022-12-08T07:00:45;4.05;;;3.60;;
60368;SDS011;46208;44.634;10.492;2022-12-08T07:03:49;2.88;;;2.58;;
60368;SDS011;46208;44.634;10.492;2022-12-08T07:06:53;2.25;;;2.15;;
60368;SDS011;46208;44.634;10.492;2022-12-08T07:09:57;4.65;;;3.78;;
60368;SDS011;46208;44.634;10.492;2022-12-08T07:13:00;4.18;;;3.10;;
60368;SDS011;46208;44.634;10.492;2022-12-08T07:16:08;5.68;;;3.15;;
60368;SDS011;46208;44.634;10.492;2022-12-08T07:19:12;4.68;;;4.20;;
60368;SDS011;46208;44.634;10.492;2022-12-08T07:22:16;5.22;;;2.97;;
60368;SDS011;46208;44.634;10.492;2022-12-08T07:25:20;5.07;;;2.38;;
60368;SDS011;46208;44.634;10.492;2022-12-08T07:28:24;6.75;;;3.17;;
60368;SDS011;46208;44.634;10.492;2022-12-08T07:31:27;8.40;;;6.07;;
60368;SDS011;46208;44.634;10.492;2022-12-08T07:34:31;6.63;;;4.18;;
60368;SDS011;46208;44.634;10.492;2022-12-08T07:37:35;6.63;;;5.07;;
60368;SDS011;46208;44.634;10.492;2022-12-08T07:40:39;11.02;;;4.63;;
60368;SDS011;46208;44.634;10.492;2022-12-08T07:43:43;3.72;;;3.35;;
60368;SDS011;46208;44.634;10.492;2022-12-08T07:46:48;2.80;;;2.28;;
60368;SDS011;46208;44.634;10.492;2022-12-08T07:49:51;5.38;;;4.97;;
60368;SDS011;46208;44.634;10.492;2022-12-08T07:52:55;4.60;;;3.50;;
60368;SDS011;46208;44.634;10.492;2022-12-08T07:55:59;8.38;;;4.00;;
60368;SDS011;46208;44.634;10.492;2022-12-08T07:59:03;8.20;;;5.57;;
60368;SDS011;46208;44.634;10.492;2022-12-08T08:02:11;4.53;;;3.60;;
60368;SDS011;46208;44.634;10.492;2022-12-08T08:05:19;5.82;;;1.80;;
60368;SDS011;46208;44.634;10.492;2022-12-08T08:08:23;4.65;;;2.70;;
60368;SDS011;46208;44.634;10.492;2022-12-08T08:11:27;6.75;;;4.00;;
60368;SDS011;46208;44.634;10.492;2022-12-08T08:14:30;4.75;;;2.80;;
60368;SDS011;46208;44.634;10.492;2022-12-08T08:17:35;5.88;;;3.78;;
60368;SDS011;46208;44.634;10.492;2022-12-08T08:20:39;4.47;;;3.33;;
60368;SDS011;46208;44.634;10.492;2022-12-08T08:23:43;8.18;;;4.32;;
60368;SDS011;46208;44.634;10.492;2022-12-08T08:26:47;5.25;;;3.85;;
60368;SDS011;46208;44.634;10.492;2022-12-08T08:29:51;7.13;;;5.57;;
60368;SDS011;46208;44.634;10.492;2022-12-08T08:32:55;9.25;;;3.47;;
60368;SDS011;46208;44.634;10.492;2022-12-08T08:35:59;3.97;;;3.67;;
60368;SDS011;46208;44.634;10.492;2022-12-08T08:39:03;9.88;;;5.63;;
60368;SDS011;46208;44.634;10.492;2022-12-08T08:42:06;4.55;;;3.78;;
60368;SDS011;46208;44.634;10.492;2022-12-08T08:45:10;5.97;;;4.35;;
60368;SDS011;46208;44.634;10.492;2022-12-08T08:48:14;3.88;;;3.60;;
60368;SDS011;46208;44.634;10.492;2022-12-08T08:51:18;5.45;;;5.00;;
60368;SDS011;46208;44.634;10.492;2022-12-08T08:54:21;9.07;;;5.03;;
60368;SDS011;46208;44.634;10.492;2022-12-08T08:57:25;4.88;;;4.25;;
60368;SDS011;46208;44.634;10.492;2022-12-08T09:00:29;5.30;;;3.72;;
60368;SDS011;46208;44.634;10.492;2022-12-08T09:03:33;3.97;;;3.50;;
60368;SDS011;46208;44.634;10.492;2022-12-08T09:06:39;5.90;;;4.47;;
60368;SDS011;46208;44.634;10.492;2022-12-08T09:09:45;3.43;;;3.13;;
60368;SDS011;46208;44.634;10.492;2022-12-08T09:12:49;10.23;;;6.43;;
60368;SDS011;46208;44.634;10.492;2022-12-08T09:15:53;6.28;;;4.40;;
60368;SDS011;46208;44.634;10.492;2022-12-08T09:18:57;8.55;;;5.93;;
60368;SDS011;46208;44.634;10.492;2022-12-08T09:22:03;9.10;;;6.57;;
60368;SDS011;46208;44.634;10.492;2022-12-08T09:25:07;7.72;;;4.97;;
60368;SDS011;46208;44.634;10.492;2022-12-08T09:28:11;6.13;;;4.82;;
60368;SDS011;46208;44.634;10.492;2022-12-08T09:31:16;5.40;;;4.60;;
60368;SDS011;46208;44.634;10.492;2022-12-08T09:34:21;8.88;;;4.93;;
60368;SDS011;46208;44.634;10.492;2022-12-08T09:37:25;8.50;;;5.05;;
60368;SDS011;46208;44.634;10.492;2022-12-08T09:40:29;5.13;;;4.63;;
60368;SDS011;46208;44.634;10.492;2022-12-08T09:43:49;8.27;;;5.18;;
60368;SDS011;46208;44.634;10.492;2022-12-08T09:46:54;4.80;;;3.90;;
60368;SDS011;46208;44.634;10.492;2022-12-08T09:57:00;10.55;;;4.75;;
60368;SDS011;46208;44.634;10.492;2022-12-08T10:00:09;4.82;;;4.40;;
60368;SDS011;46208;44.634;10.492;2022-12-08T10:03:16;6.15;;;3.30;;
60368;SDS011;46208;44.634;10.492;2022-12-08T10:06:32;10.77;;;4.55;;
60368;SDS011;46208;44.634;10.492;2022-12-08T10:13:14;6.70;;;4.50;;
60368;SDS011;46208;44.634;10.492;2022-12-08T10:17:02;4.75;;;3.72;;
60368;SDS011;46208;44.634;10.492;2022-12-08T10:20:02;5.55;;;4.93;;
60368;SDS011;46208;44.634;10.492;2022-12-08T10:26:37;6.53;;;4.22;;
60368;SDS011;46208;44.634;10.492;2022-12-08T10:29:41;3.97;;;3.55;;
60368;SDS011;46208;44.634;10.492;2022-12-08T10:32:47;8.30;;;4.50;;
60368;SDS011;46208;44.634;10.492;2022-12-08T10:35:53;5.40;;;4.75;;
60368;SDS011;46208;44.634;10.492;2022-12-08T10:38:58;9.77;;;4.03;;
60368;SDS011;46208;44.634;10.492;2022-12-08T10:45:14;6.80;;;5.18;;
60368;SDS011;46208;44.634;10.492;2022-12-08T10:48:20;13.18;;;4.28;;
60368;SDS011;46208;44.634;10.492;2022-12-08T10:54:36;5.40;;;4.35;;
60368;SDS011;46208;44.634;10.492;2022-12-08T10:57:40;11.93;;;6.18;;
60368;SDS011;46208;44.634;10.492;2022-12-08T11:00:44;5.85;;;5.25;;
60368;SDS011;46208;44.634;10.492;2022-12-08T11:03:58;6.13;;;3.42;;
60368;SDS011;46208;44.634;10.492;2022-12-08T11:07:03;5.32;;;4.85;;
60368;SDS011;46208;44.634;10.492;2022-12-08T11:10:13;9.25;;;3.20;;
60368;SDS011;46208;44.634;10.492;2022-12-08T11:13:26;6.80;;;3.90;;
60368;SDS011;46208;44.634;10.492;2022-12-08T11:16:30;4.78;;;4.22;;
60368;SDS011;46208;44.634;10.492;2022-12-08T11:19:41;9.05;;;5.95;;
60368;SDS011;46208;44.634;10.492;2022-12-08T11:22:52;9.10;;;4.65;;
60368;SDS011;46208;44.634;10.492;2022-12-08T11:25:57;10.73;;;4.38;;
60368;SDS011;46208;44.634;10.492;2022-12-08T11:29:12;5.35;;;4.85;;
60368;SDS011;46208;44.634;10.492;2022-12-08T11:32:16;6.07;;;5.00;;
60368;SDS011;46208;44.634;10.492;2022-12-08T11:35:27;5.50;;;5.05;;
60368;SDS011;46208;44.634;10.492;2022-12-08T11:38:15;6.72;;;4.18;;
60368;SDS011;46208;44.634;10.492;2022-12-08T11:44:56;8.07;;;4.88;;
60368;SDS011;46208;44.634;10.492;2022-12-08T11:54:37;4.22;;;3.65;;
60368;SDS011;46208;44.634;10.492;2022-12-08T11:57:42;8.63;;;4.78;;
60368;SDS011;46208;44.634;10.492;2022-12-08T12:00:47;8.82;;;4.95;;
60368;SDS011;46208;44.634;10.492;2022-12-08T12:19:44;11.25;;;4.75;;
60368;SDS011;46208;44.634;10.492;2022-12-08T12:22:51;4.95;;;3.75;;
60368;SDS011;46208;44.634;10.492;2022-12-08T12:25:58;4.93;;;3.80;;
60368;SDS011;46208;44.634;10.492;2022-12-08T12:32:06;8.85;;;5.68;;
60368;SDS011;46208;44.634;10.492;2022-12-08T12:35:14;9.93;;;5.82;;
60368;SDS011;46208;44.634;10.492;2022-12-08T12:38:21;3.97;;;2.45;;
60368;SDS011;46208;44.634;10.492;2022-12-08T12:41:45;6.68;;;4.43;;
60368;SDS011;46208;44.634;10.492;2022-12-08T12:44:49;14.07;;;6.93;;
60368;SDS011;46208;44.634;10.492;2022-12-08T12:48:22;6.60;;;5.72;;
60368;SDS011;46208;44.634;10.492;2022-12-08T12:54:42;8.32;;;5.43;;
60368;SDS011;46208;44.634;10.492;2022-12-08T12:57:56;7.40;;;5.22;;
60368;SDS011;46208;44.634;10.492;2022-12-08T13:04:14;5.10;;;4.50;;
60368;SDS011;46208;44.634;10.492;2022-12-08T13:07:19;19.42;;;11.25;;
60368;SDS011;46208;44.634;10.492;2022-12-08T13:13:33;9.30;;;6.60;;
60368;SDS011;46208;44.634;10.492;2022-12-08T13:16:37;8.70;;;3.95;;
60368;SDS011;46208;44.634;10.492;2022-12-08T13:19:41;12.93;;;5.53;;
60368;SDS011;46208;44.634;10.492;2022-12-08T13:25:49;10.43;;;5.00;;
60368;SDS011;46208;44.634;10.492;2022-12-08T13:35:45;12.45;;;6.57;;
60368;SDS011;46208;44.634;10.492;2022-12-08T13:38:51;6.78;;;4.00;;
60368;SDS011;46208;44.634;10.492;2022-12-08T13:41:57;5.97;;;3.58;;
60368;SDS011;46208;44.634;10.492;2022-12-08T13:51:18;10.45;;;6.03;;
60368;SDS011;46208;44.634;10.492;2022-12-08T13:54:24;5.28;;;4.25;;
60368;SDS011;46208;44.634;10.492;2022-12-08T13:57:29;6.18;;;4.15;;
60368;SDS011;46208;44.634;10.492;2022-12-08T14:00:33;4.88;;;3.25;;
60368;SDS011;46208;44.634;10.492;2022-12-08T14:03:58;11.68;;;5.82;;
60368;SDS011;46208;44.634;10.492;2022-12-08T14:07:01;6.22;;;3.38;;
60368;SDS011;46208;44.634;10.492;2022-12-08T14:10:06;12.98;;;5.50;;
60368;SDS011;46208;44.634;10.492;2022-12-08T14:13:10;4.38;;;3.20;;
60368;SDS011;46208;44.634;10.492;2022-12-08T14:16:25;7.40;;;5.18;;
60368;SDS011;46208;44.634;10.492;2022-12-08T14:19:31;4.57;;;3.17;;
60368;SDS011;46208;44.634;10.492;2022-12-08T14:22:36;11.35;;;5.90;;
60368;SDS011;46208;44.634;10.492;2022-12-08T14:25:39;12.25;;;5.25;;
60368;SDS011;46208;44.634;10.492;2022-12-08T14:28:49;7.65;;;4.40;;
60368;SDS011;46208;44.634;10.492;2022-12-08T14:31:52;7.70;;;4.70;;
60368;SDS011;46208;44.634;10.492;2022-12-08T14:34:56;8.52;;;4.07;;
60368;SDS011;46208;44.634;10.492;2022-12-08T14:38:04;13.15;;;5.57;;
60368;SDS011;46208;44.634;10.492;2022-12-08T14:41:10;4.67;;;3.30;;
60368;SDS011;46208;44.634;10.492;2022-12-08T14:44:22;5.97;;;5.20;;
60368;SDS011;46208;44.634;10.492;2022-12-08T14:47:29;6.78;;;4.97;;
60368;SDS011;46208;44.634;10.492;2022-12-08T14:53:42;6.90;;;4.57;;
60368;SDS011;46208;44.634;10.492;2022-12-08T14:56:47;9.27;;;4.80;;
60368;SDS011;46208;44.634;10.492;2022-12-08T14:59:53;9.43;;;4.18;;
60368;SDS011;46208;44.634;10.492;2022-12-08T15:02:57;5.70;;;4.47;;
60368;SDS011;46208;44.634;10.492;2022-12-08T15:06:04;5.65;;;4.38;;
60368;SDS011;46208;44.634;10.492;2022-12-08T15:09:16;5.57;;;4.40;;
60368;SDS011;46208;44.634;10.492;2022-12-08T15:12:20;7.75;;;4.45;;
60368;SDS011;46208;44.634;10.492;2022-12-08T15:15:25;6.68;;;4.47;;
60368;SDS011;46208;44.634;10.492;2022-12-08T15:21:38;7.10;;;3.55;;
60368;SDS011;46208;44.634;10.492;2022-12-08T15:24:41;6.63;;;3.05;;
60368;SDS011;46208;44.634;10.492;2022-12-08T15:27:45;4.18;;;3.33;;
60368;SDS011;46208;44.634;10.492;2022-12-08T15:30:49;8.75;;;4.32;;
60368;SDS011;46208;44.634;10.492;2022-12-08T15:33:52;10.68;;;5.30;;
60368;SDS011;46208;44.634;10.492;2022-12-08T15:36:56;11.35;;;5.10;;
60368;SDS011;46208;44.634;10.492;2022-12-08T15:39:59;11.25;;;5.40;;
60368;SDS011;46208;44.634;10.492;2022-12-08T15:43:02;10.65;;;5.72;;
60368;SDS011;46208;44.634;10.492;2022-12-08T15:46:05;6.00;;;4.30;;
60368;SDS011;46208;44.634;10.492;2022-12-08T15:49:15;10.00;;;5.05;;
60368;SDS011;46208;44.634;10.492;2022-12-08T15:52:20;10.38;;;5.38;;
60368;SDS011;46208;44.634;10.492;2022-12-08T15:55:23;8.50;;;4.35;;
60368;SDS011;46208;44.634;10.492;2022-12-08T15:58:27;9.32;;;4.57;;
60368;SDS011;46208;44.634;10.492;2022-12-08T16:01:30;6.28;;;5.18;;
60368;SDS011;46208;44.634;10.492;2022-12-08T16:04:34;7.80;;;3.65;;
60368;SDS011;46208;44.634;10.492;2022-12-08T16:07:37;10.23;;;5.75;;
60368;SDS011;46208;44.634;10.492;2022-12-08T16:10:41;5.13;;;3.30;;
60368;SDS011;46208;44.634;10.492;2022-12-08T16:13:46;12.82;;;6.28;;
60368;SDS011;46208;44.634;10.492;2022-12-08T16:16:56;3.28;;;2.95;;
60368;SDS011;46208;44.634;10.492;2022-12-08T16:20:00;5.65;;;3.08;;
60368;SDS011;46208;44.634;10.492;2022-12-08T16:23:03;4.50;;;4.15;;
60368;SDS011;46208;44.634;10.492;2022-12-08T16:26:09;8.65;;;4.88;;
60368;SDS011;46208;44.634;10.492;2022-12-08T16:29:17;12.55;;;5.25;;
60368;SDS011;46208;44.634;10.492;2022-12-08T16:32:21;10.77;;;4.18;;
60368;SDS011;46208;44.634;10.492;2022-12-08T16:35:25;4.65;;;3.35;;
60368;SDS011;46208;44.634;10.492;2022-12-08T16:38:28;12.70;;;5.55;;
60368;SDS011;46208;44.634;10.492;2022-12-08T16:41:32;7.25;;;5.32;;
60368;SDS011;46208;44.634;10.492;2022-12-08T16:44:53;13.43;;;4.35;;
60368;SDS011;46208;44.634;10.492;2022-12-08T16:47:57;8.00;;;5.35;;
60368;SDS011;46208;44.634;10.492;2022-12-08T16:51:01;5.38;;;4.03;;
60368;SDS011;46208;44.634;10.492;2022-12-08T16:54:06;10.02;;;4.65;;
60368;SDS011;46208;44.634;10.492;2022-12-08T16:57:10;7.90;;;4.93;;
60368;SDS011;46208;44.634;10.492;2022-12-08T17:00:15;7.45;;;4.47;;
60368;SDS011;46208;44.634;10.492;2022-12-08T17:03:19;5.15;;;4.13;;
60368;SDS011;46208;44.634;10.492;2022-12-08T17:06:23;5.65;;;5.05;;
60368;SDS011;46208;44.634;10.492;2022-12-08T17:09:26;7.07;;;4.30;;
60368;SDS011;46208;44.634;10.492;2022-12-08T17:12:30;5.43;;;4.38;;
60368;SDS011;46208;44.634;10.492;2022-12-08T17:15:34;9.05;;;4.43;;
60368;SDS011;46208;44.634;10.492;2022-12-08T17:18:37;8.10;;;4.68;;
60368;SDS011;46208;44.634;10.492;2022-12-08T17:21:40;6.75;;;3.58;;
60368;SDS011;46208;44.634;10.492;2022-12-08T17:24:44;11.10;;;7.18;;
60368;SDS011;46208;44.634;10.492;2022-12-08T17:27:48;5.60;;;3.58;;
60368;SDS011;46208;44.634;10.492;2022-12-08T17:30:51;7.45;;;4.43;;
60368;SDS011;46208;44.634;10.492;2022-12-08T17:33:56;5.38;;;4.78;;
60368;SDS011;46208;44.634;10.492;2022-12-08T17:37:00;8.25;;;4.60;;
60368;SDS011;46208;44.634;10.492;2022-12-08T17:40:04;7.35;;;5.68;;
60368;SDS011;46208;44.634;10.492;2022-12-08T17:43:07;12.40;;;5.88;;
60368;SDS011;46208;44.634;10.492;2022-12-08T17:46:15;7.47;;;5.45;;
60368;SDS011;46208;44.634;10.492;2022-12-08T17:49:22;9.25;;;5.07;;
60368;SDS011;46208;44.634;10.492;2022-12-08T17:52:25;6.18;;;5.00;;
60368;SDS011;46208;44.634;10.492;2022-12-08T17:55:29;4.90;;;3.75;;
60368;SDS011;46208;44.634;10.492;2022-12-08T17:58:32;7.18;;;4.88;;
60368;SDS011;46208;44.634;10.492;2022-12-08T18:01:35;6.68;;;5.22;;
60368;SDS011;46208;44.634;10.492;2022-12-08T18:04:39;10.30;;;4.43;;
60368;SDS011;46208;44.634;10.492;2022-12-08T18:07:42;12.65;;;5.57;;
60368;SDS011;46208;44.634;10.492;2022-12-08T18:10:46;10.48;;;5.13;;
60368;SDS011;46208;44.634;10.492;2022-12-08T18:13:50;6.10;;;4.43;;
60368;SDS011;46208;44.634;10.492;2022-12-08T18:16:53;7.78;;;5.18;;
60368;SDS011;46208;44.634;10.492;2022-12-08T18:19:56;6.47;;;5.65;;
60368;SDS011;46208;44.634;10.492;2022-12-08T18:22:59;8.70;;;5.88;;
60368;SDS011;46208;44.634;10.492;2022-12-08T18:26:06;10.75;;;5.38;;
60368;SDS011;46208;44.634;10.492;2022-12-08T18:29:09;11.43;;;5.93;;
60368;SDS011;46208;44.634;10.492;2022-12-08T18:32:13;10.52;;;6.10;;
60368;SDS011;46208;44.634;10.492;2022-12-08T18:35:16;6.22;;;4.75;;
60368;SDS011;46208;44.634;10.492;2022-12-08T18:38:19;8.43;;;5.15;;
60368;SDS011;46208;44.634;10.492;2022-12-08T18:41:23;9.65;;;6.25;;
60368;SDS011;46208;44.634;10.492;2022-12-08T18:44:27;5.20;;;4.60;;
60368;SDS011;46208;44.634;10.492;2022-12-08T18:47:32;3.85;;;3.05;;
60368;SDS011;46208;44.634;10.492;2022-12-08T18:50:35;9.30;;;5.13;;
60368;SDS011;46208;44.634;10.492;2022-12-08T18:53:39;7.63;;;3.90;;
60368;SDS011;46208;44.634;10.492;2022-12-08T18:56:42;7.88;;;5.53;;
60368;SDS011;46208;44.634;10.492;2022-12-08T18:59:46;9.60;;;5.90;;
60368;SDS011;46208;44.634;10.492;2022-12-08T19:02:49;13.13;;;5.65;;
60368;SDS011;46208;44.634;10.492;2022-12-08T19:06:02;15.95;;;9.85;;
60368;SDS011;46208;44.634;10.492;2022-12-08T19:09:07;10.65;;;7.63;;
60368;SDS011;46208;44.634;10.492;2022-12-08T19:12:10;10.10;;;5.95;;
60368;SDS011;46208;44.634;10.492;2022-12-08T19:15:15;5.07;;;4.55;;
60368;SDS011;46208;44.634;10.492;2022-12-08T19:18:18;9.30;;;4.80;;
60368;SDS011;46208;44.634;10.492;2022-12-08T19:21:22;9.20;;;3.80;;
60368;SDS011;46208;44.634;10.492;2022-12-08T19:24:26;8.70;;;5.22;;
60368;SDS011;46208;44.634;10.492;2022-12-08T19:27:30;10.98;;;6.00;;
60368;SDS011;46208;44.634;10.492;2022-12-08T19:30:36;10.15;;;5.88;;
60368;SDS011;46208;44.634;10.492;2022-12-08T19:33:39;7.63;;;4.88;;
60368;SDS011;46208;44.634;10.492;2022-12-08T19:36:43;18.92;;;8.30;;
60368;SDS011;46208;44.634;10.492;2022-12-08T19:39:47;8.23;;;5.65;;
60368;SDS011;46208;44.634;10.492;2022-12-08T19:43:17;12.70;;;5.55;;
60368;SDS011;46208;44.634;10.492;2022-12-08T19:46:40;7.75;;;5.07;;
60368;SDS011;46208;44.634;10.492;2022-12-08T19:49:43;9.32;;;5.97;;
60368;SDS011;46208;44.634;10.492;2022-12-08T19:52:46;4.78;;;4.05;;
60368;SDS011;46208;44.634;10.492;2022-12-08T19:55:50;9.30;;;4.95;;
60368;SDS011;46208;44.634;10.492;2022-12-08T19:58:54;7.65;;;3.75;;
60368;SDS011;46208;44.634;10.492;2022-12-08T20:01:57;6.85;;;6.25;;
60368;SDS011;46208;44.634;10.492;2022-12-08T20:05:01;9.30;;;4.63;;
60368;SDS011;46208;44.634;10.492;2022-12-08T20:08:05;9.70;;;6.65;;
60368;SDS011;46208;44.634;10.492;2022-12-08T20:11:09;8.27;;;5.20;;
60368;SDS011;46208;44.634;10.492;2022-12-08T20:14:12;11.45;;;5.45;;
60368;SDS011;46208;44.634;10.492;2022-12-08T20:17:16;8.55;;;4.88;;
60368;SDS011;46208;44.634;10.492;2022-12-08T20:20:19;7.70;;;4.13;;
60368;SDS011;46208;44.634;10.492;2022-12-08T20:23:22;11.30;;;4.53;;
60368;SDS011;46208;44.634;10.492;2022-12-08T20:26:26;9.15;;;4.43;;
60368;SDS011;46208;44.634;10.492;2022-12-08T20:29:29;5.82;;;5.25;;
60368;SDS011;46208;44.634;10.492;2022-12-08T20:32:32;9.27;;;4.13;;
60368;SDS011;46208;44.634;10.492;2022-12-08T20:35:35;4.18;;;3.47;;